Time;durP1;ratioP1;P1;durP2;ratioP2;P2;SDS_P1;SDS_P2;PMS_P1;PMS_P2;Temp;Humidity;BMP_temperature;BMP_pressure;BME280_temperature;BME280_humidity;BME280_pressure;Samples;Min_cycle;Max_cycle;Signal;HPM_P1;HPM_P2
2022/10/25 00:01:31;;;;;;;1.77;0.88;;;13.60;74.10;;;;;;5021569;28;20062;-78
2022/10/25 00:03:57;;;;;;;3.75;1.08;;;13.60;74.10;;;;;;5011814;28;20069;-79
2022/10/25 00:06:24;;;;;;;2.38;0.90;;;13.60;74.10;;;;;;5009463;28;20066;-78
2022/10/25 00:08:51;;;;;;;4.13;1.50;;;13.60;74.20;;;;;;4998218;28;20053;-78
2022/10/25 00:11:28;;;;;;;3.60;1.48;;;13.60;74.20;;;;;;4999654;28;20049;-79
2022/10/25 00:13:59;;;;;;;4.30;1.30;;;13.60;74.20;;;;;;5009366;28;20034;-78
2022/10/25 00:16:28;;;;;;;5.60;1.23;;;13.60;74.20;;;;;;4986092;28;20036;-78
2022/10/25 00:18:55;;;;;;;5.68;1.10;;;13.50;74.10;;;;;;4992237;28;20049;-79
2022/10/25 00:21:21;;;;;;;8.13;2.15;;;13.50;74.10;;;;;;5008093;28;20042;-79
2022/10/25 00:23:48;;;;;;;4.53;1.40;;;13.50;74.10;;;;;;5007102;28;20072;-77
2022/10/25 00:26:15;;;;;;;3.47;1.30;;;13.50;74.10;;;;;;4998834;28;20037;-78
2022/10/25 00:28:41;;;;;;;2.65;1.08;;;13.50;74.20;;;;;;5002939;28;20837;-78
2022/10/25 00:31:13;;;;;;;5.00;1.33;;;13.50;74.20;;;;;;5010058;28;20034;-77
2022/10/25 00:33:40;;;;;;;4.00;1.10;;;13.50;74.30;;;;;;4980490;28;20034;-79
2022/10/25 00:36:21;;;;;;;5.45;1.30;;;13.50;74.30;;;;;;4972572;28;20489;-79
2022/10/25 00:38:48;;;;;;;4.90;1.20;;;13.50;74.40;;;;;;4989041;28;20099;-80
2022/10/25 00:41:18;;;;;;;3.15;1.13;;;13.50;74.30;;;;;;5002241;28;20038;-79
2022/10/25 00:43:49;;;;;;;6.88;1.63;;;13.50;74.40;;;;;;4999104;28;20018;-79
2022/10/25 00:46:22;;;;;;;4.43;1.30;;;13.50;74.40;;;;;;5004777;28;20033;-80
2022/10/25 00:48:54;;;;;;;2.05;1.10;;;13.50;74.40;;;;;;4996127;28;20058;-80
2022/10/25 00:51:27;;;;;;;4.85;2.13;;;13.50;74.40;;;;;;5000582;28;20058;-80
2022/10/25 00:53:53;;;;;;;3.90;1.70;;;13.50;74.40;;;;;;4995360;28;20042;-80
2022/10/25 00:56:24;;;;;;;6.20;1.73;;;13.40;74.10;;;;;;4989022;28;20749;-80
2022/10/25 00:58:56;;;;;;;4.20;1.23;;;13.50;74.40;;;;;;5008967;28;20044;-80
2022/10/25 01:01:23;;;;;;;3.45;0.93;;;13.40;74.70;;;;;;5005062;28;20048;-79
2022/10/25 01:03:53;;;;;;;3.63;1.20;;;13.40;74.20;;;;;;5009665;28;20077;-78
2022/10/25 01:06:27;;;;;;;2.63;1.00;;;13.40;74.30;;;;;;5002109;28;20038;-79
2022/10/25 01:08:54;;;;;;;5.20;1.27;;;13.40;74.30;;;;;;5001506;28;20034;-79
2022/10/25 01:11:20;;;;;;;3.92;1.30;;;13.40;74.30;;;;;;4998748;28;20038;-80
2022/10/25 01:13:48;;;;;;;4.93;1.55;;;13.40;74.30;;;;;;5005183;28;20030;-80
2022/10/25 01:16:30;;;;;;;3.80;1.10;;;13.40;74.40;;;;;;5020885;28;20042;-79
2022/10/25 01:19:21;;;;;;;4.18;2.08;;;13.40;74.40;;;;;;5007452;28;20049;-78
2022/10/25 01:21:53;;;;;;;5.35;1.27;;;13.40;74.50;;;;;;4998995;28;20026;-79
2022/10/25 01:24:28;;;;;;;4.40;1.13;;;13.40;74.40;;;;;;4999738;28;20038;-79
2022/10/25 01:27:40;;;;;;;5.55;2.40;;;13.40;74.50;;;;;;5012152;28;20558;-81
2022/10/25 01:30:11;;;;;;;3.47;1.10;;;13.30;74.40;;;;;;4987523;28;20064;-78
2022/10/25 01:32:47;;;;;;;3.10;0.82;;;13.30;74.30;;;;;;4992604;28;20038;-77
2022/10/25 01:35:30;;;;;;;6.72;1.15;;;13.30;74.30;;;;;;4990518;28;20026;-77
2022/10/25 01:38:11;;;;;;;3.83;1.10;;;13.30;74.40;;;;;;4994153;28;20128;-77
2022/10/25 01:40:54;;;;;;;3.08;1.00;;;13.30;74.40;;;;;;4997352;28;20061;-78
2022/10/25 01:43:26;;;;;;;2.15;1.05;;;13.30;74.40;;;;;;4991509;28;20134;-76
2022/10/25 01:46:18;;;;;;;2.58;1.33;;;13.30;74.40;;;;;;4982261;28;20121;-76
2022/10/25 01:48:54;;;;;;;8.90;2.70;;;13.30;74.50;;;;;;4999364;28;20042;-78
2022/10/25 01:51:20;;;;;;;3.67;1.35;;;13.30;74.50;;;;;;5024287;28;20145;-78
2022/10/25 01:53:50;;;;;;;4.07;1.80;;;13.20;74.40;;;;;;4992279;28;20022;-77
2022/10/25 01:56:26;;;;;;;4.00;1.38;;;13.20;74.40;;;;;;5013450;28;20375;-78
2022/10/25 01:59:16;;;;;;;4.35;1.33;;;13.20;74.40;;;;;;5006005;28;20098;-77
2022/10/25 02:02:08;;;;;;;5.00;1.40;;;13.30;74.60;;;;;;4996219;28;20494;-76
2022/10/25 02:04:49;;;;;;;4.75;1.50;;;13.20;74.50;;;;;;4982855;28;20474;-78
2022/10/25 02:07:36;;;;;;;5.22;1.42;;;13.20;74.50;;;;;;5005979;28;20046;-79
2022/10/25 02:10:28;;;;;;;3.75;1.20;;;13.20;74.60;;;;;;5003163;28;20113;-78
2022/10/25 02:13:20;;;;;;;2.58;0.90;;;13.20;74.60;;;;;;5000275;28;20026;-78
2022/10/25 02:15:57;;;;;;;5.57;1.30;;;13.20;74.60;;;;;;5030730;28;20082;-78
2022/10/25 02:18:28;;;;;;;5.97;1.15;;;13.20;74.60;;;;;;4998906;28;20034;-78
2022/10/25 02:20:56;;;;;;;6.97;2.13;;;13.10;74.40;;;;;;5002732;28;20034;-79
2022/10/25 02:23:23;;;;;;;3.05;1.17;;;13.10;74.40;;;;;;5001420;28;20457;-78
2022/10/25 02:25:52;;;;;;;3.22;0.90;;;13.20;74.70;;;;;;5013751;28;20560;-79
2022/10/25 02:28:23;;;;;;;3.55;1.10;;;13.10;74.50;;;;;;5020249;28;20113;-79
2022/10/25 02:30:51;;;;;;;5.45;1.30;;;13.10;74.60;;;;;;5015116;28;20052;-78
2022/10/25 02:33:17;;;;;;;5.35;1.05;;;13.10;74.60;;;;;;5011604;28;20117;-78
2022/10/25 02:35:43;;;;;;;3.97;1.13;;;13.10;74.60;;;;;;5009058;28;20034;-79
2022/10/25 02:38:09;;;;;;;6.05;1.38;;;13.10;74.70;;;;;;5002585;28;20038;-80
2022/10/25 02:40:35;;;;;;;3.20;1.10;;;13.00;74.50;;;;;;5018597;28;20030;-82
2022/10/25 02:43:03;;;;;;;3.90;1.00;;;13.10;74.80;;;;;;4991966;28;20331;-81
2022/10/25 02:45:29;;;;;;;6.93;1.40;;;13.00;74.60;;;;;;5016009;28;20113;-81
2022/10/25 02:47:55;;;;;;;6.60;1.55;;;13.00;74.60;;;;;;5023717;28;20062;-80
2022/10/25 02:50:21;;;;;;;3.95;0.98;;;13.00;74.70;;;;;;5011220;28;20094;-79
2022/10/25 02:52:46;;;;;;;5.20;1.30;;;13.00;74.70;;;;;;5024520;28;20098;-78
2022/10/25 02:55:12;;;;;;;3.13;0.90;;;13.00;74.70;;;;;;5011683;28;20053;-78
2022/10/25 02:57:38;;;;;;;3.65;1.00;;;13.00;74.70;;;;;;5003683;28;20030;-78
2022/10/25 03:00:06;;;;;;;3.58;1.10;;;13.00;74.80;;;;;;5007349;28;20042;-79
2022/10/25 03:02:32;;;;;;;4.43;1.13;;;13.00;74.80;;;;;;4999963;28;20462;-79
2022/10/25 03:04:58;;;;;;;5.38;0.90;;;13.00;74.90;;;;;;4999905;28;20322;-78
2022/10/25 03:07:24;;;;;;;4.10;1.00;;;13.00;74.80;;;;;;5003283;28;20033;-79
2022/10/25 03:09:51;;;;;;;4.57;0.98;;;13.00;74.80;;;;;;5006502;28;20031;-79
2022/10/25 03:12:17;;;;;;;5.25;0.98;;;13.00;74.90;;;;;;4984712;28;20233;-80
2022/10/25 03:14:43;;;;;;;4.55;1.05;;;12.90;74.70;;;;;;4994021;28;20076;-79
2022/10/25 03:17:10;;;;;;;2.20;0.88;;;12.90;74.70;;;;;;5004418;28;20050;-79
2022/10/25 03:19:36;;;;;;;4.95;0.80;;;12.90;74.70;;;;;;5003779;28;20488;-78
2022/10/25 03:22:03;;;;;;;5.38;1.70;;;12.90;74.70;;;;;;4988039;28;20061;-79
2022/10/25 03:24:28;;;;;;;2.30;0.95;;;12.90;74.80;;;;;;4999832;28;20038;-79
2022/10/25 03:26:54;;;;;;;4.15;1.33;;;12.90;74.80;;;;;;5015624;28;20101;-78
2022/10/25 03:29:20;;;;;;;3.83;1.00;;;12.90;74.90;;;;;;5006545;28;20041;-79
2022/10/25 03:31:46;;;;;;;3.63;1.08;;;12.80;74.70;;;;;;5006473;28;20073;-79
2022/10/25 03:34:12;;;;;;;4.25;1.00;;;12.80;75.10;;;;;;5010247;28;20031;-81
2022/10/25 03:36:38;;;;;;;4.68;1.42;;;12.80;74.80;;;;;;4999343;28;20042;-79
2022/10/25 03:39:04;;;;;;;3.22;0.93;;;12.80;74.80;;;;;;4993370;28;20034;-78
2022/10/25 03:41:30;;;;;;;3.67;0.93;;;12.80;74.90;;;;;;4985211;28;20088;-77
2022/10/25 03:43:55;;;;;;;4.47;0.90;;;12.70;74.70;;;;;;5000403;28;20137;-78
2022/10/25 03:46:21;;;;;;;5.82;1.27;;;12.70;74.80;;;;;;5018077;28;20029;-79
2022/10/25 03:48:47;;;;;;;4.68;1.05;;;12.70;74.80;;;;;;5015464;28;20109;-79
2022/10/25 03:51:13;;;;;;;9.40;2.50;;;12.70;74.80;;;;;;5013633;28;20062;-78
2022/10/25 03:53:39;;;;;;;3.67;1.08;;;12.70;74.90;;;;;;4992151;28;20105;-78
2022/10/25 03:56:06;;;;;;;4.72;1.00;;;12.60;74.70;;;;;;5003098;28;20121;-78
2022/10/25 03:58:32;;;;;;;2.00;0.80;;;12.60;74.80;;;;;;5008370;28;20094;-78
2022/10/25 04:00:58;;;;;;;3.92;1.85;;;12.60;74.80;;;;;;5017478;28;20471;-78
2022/10/25 04:03:24;;;;;;;1.48;0.70;;;12.50;74.60;;;;;;5024254;28;20041;-77
2022/10/25 04:05:50;;;;;;;6.75;1.38;;;12.50;74.60;;;;;;4990560;28;20034;-79
2022/10/25 04:08:17;;;;;;;4.60;0.90;;;12.50;74.60;;;;;;5004860;28;20041;-78
2022/10/25 04:10:43;;;;;;;2.90;0.82;;;12.50;74.70;;;;;;5013380;28;20053;-78
2022/10/25 04:13:09;;;;;;;5.13;1.00;;;12.50;74.70;;;;;;4993588;28;20034;-78
2022/10/25 04:15:36;;;;;;;2.22;0.95;;;12.40;74.50;;;;;;5018192;28;20026;-76
2022/10/25 04:18:04;;;;;;;4.88;1.13;;;12.40;74.60;;;;;;5035384;28;20105;-79
2022/10/25 04:20:30;;;;;;;6.03;1.55;;;12.40;74.60;;;;;;5018278;28;20034;-78
2022/10/25 04:22:56;;;;;;;3.95;0.90;;;12.40;74.60;;;;;;5004215;28;20121;-78
2022/10/25 04:25:24;;;;;;;5.07;1.10;;;12.40;74.70;;;;;;5017875;28;20141;-79
2022/10/25 04:27:50;;;;;;;4.32;1.17;;;12.30;74.60;;;;;;5005881;28;20121;-78
2022/10/25 04:30:17;;;;;;;3.45;0.90;;;12.30;74.60;;;;;;5003028;28;20205;-78
2022/10/25 04:32:42;;;;;;;3.15;0.70;;;12.30;74.60;;;;;;4992887;28;20126;-79
2022/10/25 04:35:08;;;;;;;2.03;0.80;;;12.30;74.60;;;;;;5000366;28;20026;-78
2022/10/25 04:37:34;;;;;;;4.07;0.88;;;12.20;74.50;;;;;;4998853;28;20042;-79
2022/10/25 04:40:00;;;;;;;4.30;1.10;;;12.20;74.60;;;;;;5012651;28;20041;-78
2022/10/25 04:42:27;;;;;;;3.97;1.00;;;12.20;74.60;;;;;;5000559;28;20046;-78
2022/10/25 04:44:53;;;;;;;3.75;0.70;;;12.20;74.70;;;;;;5009582;28;20126;-78
2022/10/25 04:47:19;;;;;;;4.28;1.00;;;12.20;74.70;;;;;;5000696;28;20041;-78
2022/10/25 04:49:45;;;;;;;3.05;0.88;;;12.20;74.70;;;;;;5025820;28;20034;-79
2022/10/25 04:52:11;;;;;;;6.15;1.92;;;12.10;74.60;;;;;;5028927;28;20038;-79
2022/10/25 04:54:37;;;;;;;3.95;1.38;;;12.10;74.60;;;;;;5024745;28;20030;-80
2022/10/25 04:57:06;;;;;;;1.83;0.88;;;12.10;74.70;;;;;;5001595;28;20065;-79
2022/10/25 04:59:33;;;;;;;2.55;0.80;;;12.10;74.70;;;;;;4998340;28;20034;-78
2022/10/25 05:02:00;;;;;;;2.83;1.00;;;12.10;74.70;;;;;;5011362;28;20040;-77
2022/10/25 05:04:26;;;;;;;4.93;1.10;;;12.10;74.70;;;;;;5022919;28;20083;-77
2022/10/25 05:06:52;;;;;;;3.45;1.17;;;12.10;74.80;;;;;;5016095;28;20034;-78
2022/10/25 05:09:18;;;;;;;4.18;0.90;;;12.10;74.80;;;;;;5013046;28;20030;-78
2022/10/25 05:11:44;;;;;;;1.98;0.85;;;12.00;74.70;;;;;;5011287;28;20041;-80
2022/10/25 05:14:10;;;;;;;2.83;1.08;;;12.00;74.70;;;;;;5027382;28;20034;-81
2022/10/25 05:16:38;;;;;;;4.65;0.90;;;12.00;74.70;;;;;;5015979;28;20109;-79
2022/10/25 05:19:04;;;;;;;4.78;1.10;;;12.00;74.70;;;;;;5001324;28;20030;-76
2022/10/25 05:21:32;;;;;;;3.00;1.58;;;12.00;74.80;;;;;;4997640;28;20109;-80
2022/10/25 05:23:59;;;;;;;3.03;0.90;;;11.90;74.60;;;;;;4987502;28;20039;-80
2022/10/25 05:26:25;;;;;;;6.72;1.13;;;11.90;74.70;;;;;;4991620;28;20369;-82
2022/10/25 05:28:54;;;;;;;4.22;1.02;;;11.90;74.70;;;;;;4997898;28;20101;-83
2022/10/25 05:31:22;;;;;;;4.22;1.15;;;11.80;74.50;;;;;;5006308;28;20030;-86
2022/10/25 05:33:50;;;;;;;5.50;1.58;;;11.80;74.60;;;;;;5007933;28;20033;-85
2022/10/25 05:36:18;;;;;;;3.72;0.90;;;11.80;74.60;;;;;;4976999;28;20047;-85
2022/10/25 05:38:45;;;;;;;3.50;0.90;;;11.80;74.70;;;;;;4983938;28;20381;-85
2022/10/25 05:41:13;;;;;;;3.22;1.30;;;11.70;74.50;;;;;;4989694;28;20041;-83
2022/10/25 05:43:39;;;;;;;4.00;0.68;;;11.70;74.60;;;;;;4990948;28;20555;-86
2022/10/25 05:46:06;;;;;;;4.97;1.35;;;11.70;74.60;;;;;;4991002;28;20033;-84
2022/10/25 05:48:34;;;;;;;3.40;1.13;;;11.70;74.60;;;;;;5013395;28;20511;-88
2022/10/25 05:51:13;;;;;;;3.40;0.88;;;11.70;74.60;;;;;;4995558;28;20030;-83
2022/10/25 05:53:47;;;;;;;3.60;1.00;;;11.70;74.70;;;;;;5003494;28;20494;-83
2022/10/25 05:56:13;;;;;;;4.45;1.27;;;11.70;74.60;;;;;;4978514;28;20038;-80
2022/10/25 05:58:40;;;;;;;3.63;0.80;;;11.70;74.60;;;;;;4997339;28;20396;-85
2022/10/25 06:01:08;;;;;;;2.67;0.90;;;11.60;74.50;;;;;;5009048;28;20018;-85
2022/10/25 06:03:35;;;;;;;2.55;0.75;;;11.60;74.50;;;;;;5006730;28;20058;-81
2022/10/25 06:06:04;;;;;;;3.60;0.90;;;11.50;74.30;;;;;;5030041;28;20058;-83
2022/10/25 06:08:32;;;;;;;3.33;1.10;;;11.50;74.40;;;;;;5014217;28;20022;-83
2022/10/25 06:11:04;;;;;;;3.60;1.20;;;11.50;74.40;;;;;;5015598;28;20061;-81
2022/10/25 06:13:32;;;;;;;3.20;1.08;;;11.50;74.40;;;;;;5028884;28;20018;-80
2022/10/25 06:16:02;;;;;;;3.67;1.13;;;11.50;74.50;;;;;;5032522;28;20031;-79
2022/10/25 06:18:30;;;;;;;4.13;1.20;;;11.40;74.30;;;;;;4999091;28;20028;-87
2022/10/25 06:20:59;;;;;;;4.85;1.00;;;11.40;74.30;;;;;;5001470;28;20025;-89
2022/10/25 06:23:26;;;;;;;2.67;1.48;;;11.40;74.40;;;;;;4990621;28;20132;-85
2022/10/25 06:25:57;;;;;;;3.95;1.17;;;11.30;74.20;;;;;;5003338;28;20029;-88
2022/10/25 06:28:23;;;;;;;2.00;1.02;;;11.30;74.20;;;;;;4996120;28;20034;-86
2022/10/25 06:30:50;;;;;;;3.50;1.20;;;11.30;74.20;;;;;;5018037;28;20041;-81
2022/10/25 06:33:15;;;;;;;2.20;1.35;;;11.30;74.20;;;;;;4990394;28;20029;-91
2022/10/25 06:35:41;;;;;;;4.80;1.20;;;11.30;74.20;;;;;;5001181;28;20205;-86
2022/10/25 06:38:07;;;;;;;3.03;1.50;;;11.20;74.00;;;;;;4990156;28;20038;-78
2022/10/25 06:40:34;;;;;;;4.28;1.63;;;11.20;74.00;;;;;;4989873;28;20022;-78
2022/10/25 06:43:00;;;;;;;3.08;1.08;;;11.20;74.10;;;;;;4987761;28;20049;-87
2022/10/25 06:45:26;;;;;;;2.95;1.00;;;11.20;74.00;;;;;;4999195;28;20512;-83
2022/10/25 06:47:52;;;;;;;2.40;1.08;;;11.20;74.00;;;;;;4990112;28;20038;-80
2022/10/25 06:50:18;;;;;;;2.95;0.82;;;11.20;74.00;;;;;;4991304;28;20035;-86
2022/10/25 06:52:43;;;;;;;2.58;1.10;;;11.20;74.60;;;;;;4987266;28;20045;-85
2022/10/25 06:55:10;;;;;;;5.43;1.30;;;11.20;74.60;;;;;;4990132;28;20026;-85
2022/10/25 06:57:36;;;;;;;2.55;1.10;;;11.10;73.90;;;;;;4987656;28;20038;-81
2022/10/25 07:00:02;;;;;;;3.05;1.35;;;11.10;73.90;;;;;;4988542;28;20034;-80
2022/10/25 07:02:28;;;;;;;3.42;1.00;;;11.10;73.90;;;;;;4974400;28;20544;-80
2022/10/25 07:04:54;;;;;;;5.10;1.67;;;11.10;73.90;;;;;;4995100;28;20026;-79
2022/10/25 07:07:20;;;;;;;4.75;1.42;;;11.10;74.00;;;;;;4990555;28;20507;-79
2022/10/25 07:09:46;;;;;;;4.20;1.30;;;11.10;74.00;;;;;;5008290;28;20026;-78
2022/10/25 07:12:13;;;;;;;2.08;1.08;;;11.10;74.00;;;;;;4987746;28;20034;-81
2022/10/25 07:14:39;;;;;;;4.80;2.08;;;11.10;73.90;;;;;;4987521;28;20032;-82
2022/10/25 07:17:05;;;;;;;2.25;1.38;;;11.10;73.90;;;;;;4994116;28;20038;-82
2022/10/25 07:19:32;;;;;;;2.53;1.27;;;11.10;74.00;;;;;;4993044;28;20031;-82
2022/10/25 07:21:57;;;;;;;7.22;2.20;;;11.10;73.90;;;;;;5005850;28;20034;-79
2022/10/25 07:24:23;;;;;;;7.95;2.17;;;11.10;74.30;;;;;;4997668;28;20031;-82
2022/10/25 07:26:49;;;;;;;8.93;3.85;;;11.30;75.30;;;;;;5000214;28;20469;-81
2022/10/25 07:29:15;;;;;;;5.55;2.58;;;11.50;76.10;;;;;;5002290;28;20242;-83
2022/10/25 07:31:43;;;;;;;7.05;2.85;;;11.70;76.60;;;;;;4990155;28;20532;-80
2022/10/25 07:34:12;;;;;;;7.15;2.20;;;11.90;77.10;;;;;;5005177;28;20466;-81
2022/10/25 07:36:39;;;;;;;12.00;2.65;;;12.10;77.50;;;;;;4992453;28;20038;-89
2022/10/25 07:39:04;;;;;;;10.70;2.60;;;12.40;78.00;;;;;;4988129;28;20031;-88
2022/10/25 07:41:30;;;;;;;7.13;2.90;;;12.50;78.20;;;;;;5002434;28;20033;-89
2022/10/25 07:43:57;;;;;;;3.47;2.25;;;12.70;78.70;;;;;;5002567;28;20034;-88
2022/10/25 07:46:23;;;;;;;5.15;2.22;;;12.80;78.90;;;;;;4989619;28;20042;-89
2022/10/25 07:48:51;;;;;;;4.93;2.10;;;12.90;79.20;;;;;;4992049;28;20042;-89
2022/10/25 07:51:17;;;;;;;4.95;2.20;;;13.10;79.60;;;;;;4984937;28;20026;-90
2022/10/25 07:53:43;;;;;;;4.35;1.95;;;13.20;79.70;;;;;;4990712;28;20111;-83
2022/10/25 07:56:12;;;;;;;4.28;1.55;;;13.30;79.90;;;;;;4991703;28;20188;-83
2022/10/25 07:58:38;;;;;;;4.18;1.38;;;13.40;80.10;;;;;;4994096;28;20036;-84
2022/10/25 08:01:06;;;;;;;3.83;2.05;;;13.50;80.10;;;;;;4986632;28;20030;-79
2022/10/25 08:03:32;;;;;;;3.33;1.20;;;13.50;80.10;;;;;;4984849;28;20057;-79
2022/10/25 08:05:59;;;;;;;2.78;1.17;;;13.50;80.00;;;;;;4988189;28;20092;-80
2022/10/25 08:08:26;;;;;;;3.58;1.42;;;13.40;79.80;;;;;;4987118;28;20045;-82
2022/10/25 08:10:52;;;;;;;4.00;1.40;;;13.40;79.80;;;;;;4986382;28;20018;-81
2022/10/25 08:13:18;;;;;;;1.63;1.10;;;13.40;79.80;;;;;;4986346;28;20030;-82
2022/10/25 08:15:56;;;;;;;3.92;1.25;;;13.40;79.80;;;;;;4990835;28;20023;-81
2022/10/25 08:18:22;;;;;;;5.35;1.55;;;13.30;79.60;;;;;;4991635;28;20044;-80
2022/10/25 08:20:49;;;;;;;5.45;1.23;;;13.30;79.50;;;;;;4995748;28;20608;-84
2022/10/25 08:23:15;;;;;;;3.63;1.38;;;13.40;79.70;;;;;;4970269;28;20030;-85
2022/10/25 08:25:41;;;;;;;2.65;1.10;;;13.40;79.60;;;;;;4988652;28;20109;-85
2022/10/25 08:28:07;;;;;;;2.53;1.35;;;13.40;79.50;;;;;;4990074;28;20038;-81
2022/10/25 08:30:35;;;;;;;2.75;1.33;;;13.40;79.40;;;;;;4999649;28;20144;-81
2022/10/25 08:33:02;;;;;;;3.45;1.17;;;13.40;79.30;;;;;;4987782;28;20029;-83
2022/10/25 08:35:28;;;;;;;3.08;1.10;;;13.40;79.20;;;;;;4988578;28;20037;-82
2022/10/25 08:37:54;;;;;;;4.20;1.63;;;13.40;79.20;;;;;;4988177;28;20046;-81
2022/10/25 08:40:35;;;;;;;4.95;1.40;;;13.40;79.10;;;;;;4991516;28;20024;-84
2022/10/25 08:43:19;;;;;;;4.50;0.90;;;13.40;79.00;;;;;;4988805;28;20072;-84
2022/10/25 08:46:00;;;;;;;4.38;1.30;;;13.40;79.00;;;;;;4998776;28;20130;-79
2022/10/25 08:48:31;;;;;;;2.22;1.17;;;13.40;78.90;;;;;;5007766;28;20054;-83
2022/10/25 08:51:04;;;;;;;3.03;1.38;;;13.50;79.00;;;;;;5005506;28;20037;-81
2022/10/25 08:53:37;;;;;;;7.20;2.47;;;13.50;78.90;;;;;;5002367;28;20544;-81
2022/10/25 08:56:07;;;;;;;1.63;1.00;;;13.50;78.90;;;;;;4997055;28;20057;-80
2022/10/25 08:59:03;;;;;;;4.65;1.30;;;13.50;78.80;;;;;;4991484;28;20038;-81
2022/10/25 09:01:43;;;;;;;6.63;1.88;;;13.50;78.80;;;;;;5007751;28;20490;-81
2022/10/25 09:04:10;;;;;;;7.20;1.88;;;13.50;78.70;;;;;;4991290;28;20046;-82
2022/10/25 09:07:01;;;;;;;5.80;1.30;;;13.60;78.80;;;;;;4988953;28;20021;-82
2022/10/25 09:09:36;;;;;;;5.13;0.95;;;13.60;78.80;;;;;;5018885;28;20030;-82
2022/10/25 09:12:40;;;;;;;2.78;0.90;;;13.70;78.80;;;;;;5015574;28;20050;-82
2022/10/25 09:15:12;;;;;;;2.80;1.50;;;13.80;78.80;;;;;;5007760;28;20038;-83
2022/10/25 09:17:48;;;;;;;2.95;0.90;;;13.80;78.70;;;;;;4990603;28;20046;-83
2022/10/25 09:20:59;;;;;;;3.72;1.40;;;13.90;78.80;;;;;;4988902;28;20670;-83
2022/10/25 09:23:31;;;;;;;2.67;1.15;;;14.00;78.90;;;;;;4998412;28;20027;-87
2022/10/25 09:26:03;;;;;;;4.22;1.42;;;14.00;78.70;;;;;;4992209;28;20030;-83
2022/10/25 09:29:01;;;;;;;5.32;1.20;;;14.10;78.70;;;;;;4987514;28;20441;-83
2022/10/25 09:31:35;;;;;;;6.95;1.48;;;14.20;78.70;;;;;;4973777;28;20030;-84
2022/10/25 09:34:04;;;;;;;4.28;1.52;;;14.20;78.50;;;;;;4991631;28;20114;-81
2022/10/25 09:36:45;;;;;;;7.00;1.30;;;14.30;78.60;;;;;;4989924;28;20042;-80
2022/10/25 09:39:40;;;;;;;2.92;0.90;;;14.40;78.70;;;;;;4993542;28;20026;-79
2022/10/25 09:42:24;;;;;;;7.18;1.63;;;14.40;78.50;;;;;;4966714;28;20471;-80
2022/10/25 09:44:59;;;;;;;12.13;2.55;;;14.50;78.50;;;;;;5008674;28;20030;-82
2022/10/25 09:47:42;;;;;;;7.35;1.75;;;14.60;78.60;;;;;;5007995;28;20042;-83
2022/10/25 09:50:28;;;;;;;4.43;1.23;;;14.70;78.70;;;;;;5000867;28;20544;-83
2022/10/25 09:53:15;;;;;;;6.03;1.23;;;14.80;78.70;;;;;;5001995;28;20031;-83
2022/10/25 09:55:48;;;;;;;6.35;1.35;;;14.90;78.70;;;;;;5007685;28;20101;-82
2022/10/25 09:58:18;;;;;;;5.60;1.20;;;14.90;78.50;;;;;;4993568;28;20054;-83
2022/10/25 10:00:44;;;;;;;5.40;1.20;;;15.00;79.10;;;;;;4994094;28;20034;-83
2022/10/25 10:03:12;;;;;;;5.38;0.90;;;15.10;78.70;;;;;;4997356;28;20035;-82
2022/10/25 10:05:42;;;;;;;7.20;1.63;;;15.10;78.60;;;;;;5006469;28;20567;-83
2022/10/25 10:08:09;;;;;;;4.10;1.20;;;15.20;78.60;;;;;;4991266;28;20088;-83
2022/10/25 10:10:37;;;;;;;5.93;2.13;;;15.30;78.60;;;;;;4996646;28;20034;-83
2022/10/25 10:13:15;;;;;;;4.35;1.33;;;15.40;78.50;;;;;;5017391;28;20046;-83
2022/10/25 10:15:58;;;;;;;9.70;1.98;;;15.50;78.50;;;;;;4987362;28;20046;-83
2022/10/25 10:18:26;;;;;;;;;;;15.70;78.50;;;;;;4995972;28;20060;-82
2022/10/25 10:21:12;;;;;;;2.58;0.93;;;15.80;78.30;;;;;;4986617;28;19971;-83
2022/10/25 10:23:55;;;;;;;4.53;1.70;;;15.90;78.20;;;;;;4989145;28;20350;-84
2022/10/25 10:26:32;;;;;;;5.45;1.38;;;15.90;77.80;;;;;;4991789;28;20026;-83
2022/10/25 10:29:08;;;;;;;6.65;2.50;;;16.10;78.00;;;;;;5011709;28;20400;-83
2022/10/25 10:31:39;;;;;;;7.13;2.08;;;16.30;78.00;;;;;;4992344;28;20505;-83
2022/10/25 10:34:21;;;;;;;3.72;0.90;;;16.40;77.80;;;;;;4991843;28;20039;-81
2022/10/25 10:36:59;;;;;;;3.75;1.02;;;16.50;77.80;;;;;;4992813;28;20042;-81
2022/10/25 10:39:25;;;;;;;6.03;1.17;;;16.60;77.70;;;;;;4992968;28;20041;-80
2022/10/25 10:42:02;;;;;;;4.78;1.20;;;16.70;77.60;;;;;;4991366;28;20122;-81
2022/10/25 10:44:33;;;;;;;3.33;1.05;;;16.80;77.60;;;;;;4993392;28;20038;-78
2022/10/25 10:47:01;;;;;;;4.45;0.77;;;16.80;77.40;;;;;;4992489;28;20038;-80
2022/10/25 10:49:36;;;;;;;2.25;1.27;;;17.00;77.50;;;;;;5001629;28;20042;-81
2022/10/25 10:52:03;;;;;;;2.28;0.80;;;17.00;77.20;;;;;;4972460;28;20497;-80
2022/10/25 10:54:33;;;;;;;3.63;1.10;;;17.10;77.60;;;;;;4989462;28;20030;-81
2022/10/25 10:57:05;;;;;;;5.85;1.95;;;17.20;77.10;;;;;;4985015;28;20502;-80
2022/10/25 10:59:37;;;;;;;3.90;1.30;;;17.20;76.90;;;;;;4994693;28;20046;-81
2022/10/25 11:02:21;;;;;;;4.70;1.20;;;17.20;76.70;;;;;;4989137;28;20026;-84
2022/10/25 11:04:49;;;;;;;2.30;0.90;;;17.30;76.70;;;;;;4991603;28;20037;-82
2022/10/25 11:07:33;;;;;;;2.75;0.85;;;17.30;76.60;;;;;;4990769;28;20026;-80
2022/10/25 11:10:32;;;;;;;3.03;1.00;;;17.40;76.60;;;;;;4987158;28;20026;-83
2022/10/25 11:13:18;;;;;;;4.82;1.30;;;17.30;76.30;;;;;;4968377;28;20500;-81
2022/10/25 11:15:47;;;;;;;4.78;0.98;;;17.40;76.40;;;;;;4990181;28;20049;-81
2022/10/25 11:18:15;;;;;;;4.65;1.73;;;17.40;76.40;;;;;;4988234;28;20050;-88
2022/10/25 11:20:58;;;;;;;5.13;1.10;;;17.40;76.20;;;;;;5005783;28;20499;-80
2022/10/25 11:23:30;;;;;;;3.55;1.42;;;17.50;76.40;;;;;;4998988;28;20093;-82
2022/10/25 11:26:14;;;;;;;5.57;2.13;;;17.70;76.70;;;;;;4991297;28;20022;-79
2022/10/25 11:29:17;;;;;;;9.05;2.15;;;17.80;76.70;;;;;;5004376;28;20038;-81
2022/10/25 11:32:07;;;;;;;5.93;1.98;;;18.00;76.70;;;;;;4992848;28;20035;-79
2022/10/25 11:34:56;;;;;;;4.00;1.17;;;18.30;76.80;;;;;;4981614;28;20189;-84
2022/10/25 11:37:26;;;;;;;3.17;1.10;;;18.40;76.70;;;;;;4982437;28;20054;-80
2022/10/25 11:40:12;;;;;;;4.43;1.30;;;18.60;76.60;;;;;;5008252;28;20121;-81
2022/10/25 11:42:53;;;;;;;4.95;1.50;;;18.80;76.40;;;;;;4989058;28;20485;-81
2022/10/25 11:45:25;;;;;;;7.43;2.67;;;19.00;76.30;;;;;;5012660;28;20114;-82
2022/10/25 11:48:16;;;;;;;7.78;2.45;;;19.10;76.40;;;;;;4997460;28;20045;-83
2022/10/25 11:51:08;;;;;;;7.00;1.80;;;19.20;76.80;;;;;;4997266;28;20082;-85
2022/10/25 11:53:56;;;;;;;5.82;1.40;;;19.40;77.00;;;;;;4996952;28;20045;-81
2022/10/25 11:56:35;;;;;;;8.07;2.03;;;19.60;77.80;;;;;;5000623;28;20082;-88
2022/10/25 11:59:25;;;;;;;2.28;1.08;;;19.80;77.30;;;;;;5001755;28;20138;-86
2022/10/25 12:02:02;;;;;;;5.82;1.33;;;20.00;77.30;;;;;;5000214;28;20878;-86
2022/10/25 12:04:56;;;;;;;7.43;1.50;;;20.10;77.10;;;;;;5003177;28;20086;-85
2022/10/25 12:07:32;;;;;;;5.05;1.45;;;20.30;77.10;;;;;;4995676;28;20197;-85
2022/10/25 12:10:02;;;;;;;5.85;1.05;;;20.30;77.00;;;;;;5022322;28;20061;-86
2022/10/25 12:12:48;;;;;;;4.65;1.85;;;20.30;77.00;;;;;;5012942;28;20125;-85
2022/10/25 12:15:50;;;;;;;5.15;1.15;;;20.30;76.90;;;;;;5001303;28;20120;-84
2022/10/25 12:18:28;;;;;;;5.20;1.92;;;20.30;76.80;;;;;;5029122;28;20066;-83
2022/10/25 12:20:55;;;;;;;2.78;1.25;;;20.30;76.80;;;;;;5010037;28;20042;-83
2022/10/25 12:23:24;;;;;;;5.18;2.08;;;20.30;76.80;;;;;;4994147;28;20061;-84
2022/10/25 12:25:55;;;;;;;4.13;1.13;;;20.40;76.80;;;;;;4996376;28;20042;-84
2022/10/25 12:28:27;;;;;;;3.30;0.95;;;20.40;76.60;;;;;;5005636;28;20058;-86
2022/10/25 12:31:19;;;;;;;5.60;1.52;;;20.50;76.60;;;;;;5000490;28;20122;-86
2022/10/25 12:33:50;;;;;;;6.47;1.45;;;20.50;76.40;;;;;;5002147;28;20030;-85
2022/10/25 12:36:35;;;;;;;4.15;1.63;;;20.70;76.40;;;;;;4989845;28;20038;-86
2022/10/25 12:39:09;;;;;;;4.38;1.75;;;20.90;76.30;;;;;;4997144;28;20126;-85
2022/10/25 12:41:39;;;;;;;4.82;1.08;;;21.10;76.20;;;;;;5015443;28;20078;-84
2022/10/25 12:44:20;;;;;;;2.20;1.05;;;21.40;76.00;;;;;;4995993;28;20061;-84
2022/10/25 12:47:56;;;;;;;3.38;1.10;;;21.60;75.60;;;;;;4998579;28;20098;-84
2022/10/25 12:51:00;;;;;;;4.38;1.88;;;21.90;75.10;;;;;;4888106;29;20260;-86
2022/10/25 12:53:44;;;;;;;;;;;22.20;75.00;;;;;;4899122;29;20040;-85
2022/10/25 12:56:58;;;;;;;4.03;1.00;;;22.40;75.00;;;;;;4968847;28;20012;-85
2022/10/25 12:59:43;;;;;;;4.47;1.13;;;22.60;74.60;;;;;;4990736;28;20101;-85
2022/10/25 13:02:43;;;;;;;3.30;0.90;;;22.70;74.40;;;;;;4992758;28;20061;-86
2022/10/25 13:05:46;;;;;;;4.10;1.25;;;22.70;74.00;;;;;;4999575;28;20122;-85
2022/10/25 13:08:15;;;;;;;3.28;0.98;;;22.70;73.70;;;;;;4992581;28;20043;-86
2022/10/25 13:10:45;;;;;;;2.95;1.35;;;22.70;73.90;;;;;;5000399;28;20121;-79
2022/10/25 13:13:25;;;;;;;3.67;0.93;;;22.70;73.70;;;;;;4990110;28;20026;-80
2022/10/25 13:15:53;;;;;;;3.35;0.77;;;22.60;73.20;;;;;;4991334;28;20472;-81